sensor_id;sensor_type;location;lat;lon;timestamp;P1;durP1;ratioP1;P2;durP2;ratioP2
70927;SDS011;58587;53.034;18.576;2023-07-13T07:38:21;12.68;;;3.28;;
70927;SDS011;58587;53.034;18.576;2023-07-13T07:40:46;6.57;;;3.00;;
70927;SDS011;58587;53.034;18.576;2023-07-13T07:43:12;5.90;;;3.10;;
70927;SDS011;58587;53.034;18.576;2023-07-13T07:45:38;3.80;;;2.53;;
70927;SDS011;58587;53.034;18.576;2023-07-13T07:48:04;5.77;;;2.47;;
70927;SDS011;58587;53.034;18.576;2023-07-13T07:50:30;6.70;;;2.70;;
70927;SDS011;58587;53.034;18.576;2023-07-13T07:52:56;4.97;;;2.27;;
70927;SDS011;58587;53.034;18.576;2023-07-13T07:55:21;4.83;;;2.30;;
70927;SDS011;58587;53.034;18.576;2023-07-13T07:57:47;4.00;;;2.00;;
70927;SDS011;58587;53.034;18.576;2023-07-13T08:00:13;8.50;;;2.38;;
70927;SDS011;58587;53.034;18.576;2023-07-13T08:02:39;9.57;;;2.60;;
70927;SDS011;58587;53.034;18.576;2023-07-13T08:05:06;7.33;;;2.67;;
70927;SDS011;58587;53.034;18.576;2023-07-13T08:07:32;4.47;;;2.70;;
70927;SDS011;58587;53.034;18.576;2023-07-13T08:09:57;3.60;;;2.50;;
70927;SDS011;58587;53.034;18.576;2023-07-13T08:12:22;5.80;;;2.33;;
70927;SDS011;58587;53.034;18.576;2023-07-13T08:14:51;5.57;;;2.43;;
70927;SDS011;58587;53.034;18.576;2023-07-13T08:17:22;4.53;;;2.40;;
70927;SDS011;58587;53.034;18.576;2023-07-13T08:19:48;5.72;;;2.08;;
70927;SDS011;58587;53.034;18.576;2023-07-13T08:22:13;5.23;;;2.07;;
70927;SDS011;58587;53.034;18.576;2023-07-13T08:24:38;8.83;;;2.13;;
70927;SDS011;58587;53.034;18.576;2023-07-13T08:27:04;5.23;;;2.30;;
70927;SDS011;58587;53.034;18.576;2023-07-13T08:29:29;6.10;;;2.30;;
70927;SDS011;58587;53.034;18.576;2023-07-13T08:31:57;6.38;;;2.35;;
70927;SDS011;58587;53.034;18.576;2023-07-13T08:34:22;4.63;;;2.20;;
70927;SDS011;58587;53.034;18.576;2023-07-13T08:36:48;7.10;;;2.20;;
70927;SDS011;58587;53.034;18.576;2023-07-13T08:39:13;8.13;;;2.17;;
70927;SDS011;58587;53.034;18.576;2023-07-13T08:41:38;3.67;;;1.87;;
70927;SDS011;58587;53.034;18.576;2023-07-13T08:44:04;4.53;;;2.80;;
70927;SDS011;58587;53.034;18.576;2023-07-13T08:46:40;4.82;;;2.55;;
70927;SDS011;58587;53.034;18.576;2023-07-13T08:54:28;6.40;;;3.00;;
70927;SDS011;58587;53.034;18.576;2023-07-13T08:56:57;6.55;;;3.30;;
70927;SDS011;58587;53.034;18.576;2023-07-13T08:59:26;7.03;;;3.20;;
70927;SDS011;58587;53.034;18.576;2023-07-13T09:01:57;5.45;;;3.00;;
70927;SDS011;58587;53.034;18.576;2023-07-13T09:04:26;5.80;;;2.97;;
70927;SDS011;58587;53.034;18.576;2023-07-13T09:09:27;4.93;;;3.00;;
70927;SDS011;58587;53.034;18.576;2023-07-13T09:12:35;8.43;;;2.97;;
70927;SDS011;58587;53.034;18.576;2023-07-13T09:15:17;10.80;;;3.28;;
70927;SDS011;58587;53.034;18.576;2023-07-13T09:17:49;9.02;;;3.80;;
70927;SDS011;58587;53.034;18.576;2023-07-13T09:20:32;9.03;;;3.40;;
70927;SDS011;58587;53.034;18.576;2023-07-13T09:23:04;8.13;;;3.22;;
70927;SDS011;58587;53.034;18.576;2023-07-13T09:25:33;5.57;;;3.25;;
70927;SDS011;58587;53.034;18.576;2023-07-13T09:28:10;9.65;;;3.53;;
70927;SDS011;58587;53.034;18.576;2023-07-13T09:30:43;7.45;;;2.50;;
70927;SDS011;58587;53.034;18.576;2023-07-13T09:33:16;6.97;;;2.57;;
70927;SDS011;58587;53.034;18.576;2023-07-13T09:35:42;6.18;;;2.67;;
70927;SDS011;58587;53.034;18.576;2023-07-13T09:38:14;9.00;;;2.30;;
70927;SDS011;58587;53.034;18.576;2023-07-13T09:40:46;9.60;;;3.05;;
70927;SDS011;58587;53.034;18.576;2023-07-13T09:43:21;4.60;;;2.42;;
70927;SDS011;58587;53.034;18.576;2023-07-13T09:45:47;4.67;;;2.43;;
70927;SDS011;58587;53.034;18.576;2023-07-13T09:48:14;5.30;;;2.40;;
70927;SDS011;58587;53.034;18.576;2023-07-13T09:50:41;3.87;;;2.23;;
70927;SDS011;58587;53.034;18.576;2023-07-13T09:53:15;2.88;;;2.30;;
70927;SDS011;58587;53.034;18.576;2023-07-13T09:55:43;4.15;;;2.30;;
70927;SDS011;58587;53.034;18.576;2023-07-13T09:58:14;6.82;;;2.47;;
70927;SDS011;58587;53.034;18.576;2023-07-13T10:01:07;5.88;;;2.58;;
70927;SDS011;58587;53.034;18.576;2023-07-13T10:03:34;3.50;;;1.87;;
70927;SDS011;58587;53.034;18.576;2023-07-13T10:06:14;2.78;;;2.00;;
70927;SDS011;58587;53.034;18.576;2023-07-13T10:08:45;2.63;;;1.90;;
70927;SDS011;58587;53.034;18.576;2023-07-13T10:11:19;3.47;;;2.10;;
70927;SDS011;58587;53.034;18.576;2023-07-13T10:16:16;4.73;;;2.30;;
70927;SDS011;58587;53.034;18.576;2023-07-13T10:21:18;3.17;;;1.77;;
70927;SDS011;58587;53.034;18.576;2023-07-13T10:23:49;4.30;;;2.17;;
70927;SDS011;58587;53.034;18.576;2023-07-13T10:26:29;6.15;;;4.93;;
70927;SDS011;58587;53.034;18.576;2023-07-13T10:28:59;5.65;;;2.30;;
70927;SDS011;58587;53.034;18.576;2023-07-13T10:31:29;4.90;;;2.05;;
70927;SDS011;58587;53.034;18.576;2023-07-13T10:33:55;3.43;;;1.67;;
70927;SDS011;58587;53.034;18.576;2023-07-13T10:36:34;4.75;;;2.08;;
70927;SDS011;58587;53.034;18.576;2023-07-13T10:39:19;5.80;;;2.40;;
70927;SDS011;58587;53.034;18.576;2023-07-13T10:41:48;7.32;;;2.78;;
70927;SDS011;58587;53.034;18.576;2023-07-13T10:44:21;4.20;;;2.72;;
70927;SDS011;58587;53.034;18.576;2023-07-13T10:46:51;3.63;;;2.65;;
70927;SDS011;58587;53.034;18.576;2023-07-13T10:49:20;14.20;;;3.30;;
70927;SDS011;58587;53.034;18.576;2023-07-13T10:51:47;8.83;;;3.57;;
70927;SDS011;58587;53.034;18.576;2023-07-13T10:54:19;7.20;;;2.87;;
70927;SDS011;58587;53.034;18.576;2023-07-13T10:56:48;7.33;;;2.87;;
70927;SDS011;58587;53.034;18.576;2023-07-13T10:59:17;7.93;;;3.25;;
70927;SDS011;58587;53.034;18.576;2023-07-13T11:01:55;7.38;;;2.83;;
70927;SDS011;58587;53.034;18.576;2023-07-13T11:04:23;7.28;;;3.15;;
70927;SDS011;58587;53.034;18.576;2023-07-13T11:06:52;5.50;;;2.80;;
70927;SDS011;58587;53.034;18.576;2023-07-13T11:09:40;6.37;;;2.97;;
70927;SDS011;58587;53.034;18.576;2023-07-13T11:12:28;6.75;;;2.80;;
70927;SDS011;58587;53.034;18.576;2023-07-13T11:15:27;5.85;;;3.00;;
70927;SDS011;58587;53.034;18.576;2023-07-13T11:17:57;6.07;;;3.20;;
70927;SDS011;58587;53.034;18.576;2023-07-13T11:20:38;8.18;;;3.40;;
70927;SDS011;58587;53.034;18.576;2023-07-13T11:25:44;4.28;;;2.72;;
70927;SDS011;58587;53.034;18.576;2023-07-13T11:36:04;4.07;;;2.30;;
70927;SDS011;58587;53.034;18.576;2023-07-13T11:41:34;5.15;;;3.03;;
70927;SDS011;58587;53.034;18.576;2023-07-13T11:44:11;3.75;;;2.50;;
70927;SDS011;58587;53.034;18.576;2023-07-13T11:46:39;4.93;;;3.00;;
70927;SDS011;58587;53.034;18.576;2023-07-13T11:49:13;4.25;;;3.17;;
70927;SDS011;58587;53.034;18.576;2023-07-13T11:51:41;4.03;;;3.10;;
70927;SDS011;58587;53.034;18.576;2023-07-13T11:54:13;4.97;;;3.77;;
70927;SDS011;58587;53.034;18.576;2023-07-13T11:56:46;5.55;;;4.47;;
70927;SDS011;58587;53.034;18.576;2023-07-13T11:59:12;4.50;;;3.27;;
70927;SDS011;58587;53.034;18.576;2023-07-13T12:01:42;5.90;;;3.30;;
70927;SDS011;58587;53.034;18.576;2023-07-13T12:04:20;5.13;;;3.22;;
70927;SDS011;58587;53.034;18.576;2023-07-13T12:06:54;5.28;;;3.35;;
70927;SDS011;58587;53.034;18.576;2023-07-13T12:09:42;5.00;;;3.43;;
70927;SDS011;58587;53.034;18.576;2023-07-13T12:12:17;6.38;;;3.00;;
70927;SDS011;58587;53.034;18.576;2023-07-13T12:14:44;5.13;;;3.60;;
70927;SDS011;58587;53.034;18.576;2023-07-13T12:17:17;4.25;;;3.60;;
70927;SDS011;58587;53.034;18.576;2023-07-13T12:19:45;4.20;;;2.93;;
70927;SDS011;58587;53.034;18.576;2023-07-13T12:22:12;4.00;;;2.97;;
70927;SDS011;58587;53.034;18.576;2023-07-13T12:24:40;4.78;;;3.00;;
70927;SDS011;58587;53.034;18.576;2023-07-13T12:27:14;5.95;;;3.00;;
70927;SDS011;58587;53.034;18.576;2023-07-13T12:29:51;5.85;;;2.95;;
70927;SDS011;58587;53.034;18.576;2023-07-13T12:32:18;5.30;;;3.10;;
70927;SDS011;58587;53.034;18.576;2023-07-13T12:34:56;3.28;;;2.47;;
70927;SDS011;58587;53.034;18.576;2023-07-13T12:37:45;5.68;;;3.00;;
70927;SDS011;58587;53.034;18.576;2023-07-13T12:40:15;5.63;;;2.43;;
70927;SDS011;58587;53.034;18.576;2023-07-13T12:42:44;5.25;;;2.78;;
70927;SDS011;58587;53.034;18.576;2023-07-13T12:47:49;3.35;;;2.20;;
70927;SDS011;58587;53.034;18.576;2023-07-13T12:50:20;4.13;;;2.65;;
70927;SDS011;58587;53.034;18.576;2023-07-13T12:52:54;3.47;;;2.27;;
70927;SDS011;58587;53.034;18.576;2023-07-13T12:55:28;4.43;;;2.80;;
70927;SDS011;58587;53.034;18.576;2023-07-13T12:57:58;4.88;;;2.90;;
70927;SDS011;58587;53.034;18.576;2023-07-13T13:02:50;6.57;;;2.93;;
70927;SDS011;58587;53.034;18.576;2023-07-13T13:05:18;5.28;;;2.60;;
70927;SDS011;58587;53.034;18.576;2023-07-13T13:07:48;3.28;;;2.30;;
70927;SDS011;58587;53.034;18.576;2023-07-13T13:10:14;5.23;;;2.50;;
70927;SDS011;58587;53.034;18.576;2023-07-13T13:12:40;7.70;;;2.85;;
70927;SDS011;58587;53.034;18.576;2023-07-13T13:15:09;5.37;;;3.00;;
70927;SDS011;58587;53.034;18.576;2023-07-13T13:17:36;3.80;;;2.30;;
70927;SDS011;58587;53.034;18.576;2023-07-13T13:20:04;4.63;;;2.40;;
70927;SDS011;58587;53.034;18.576;2023-07-13T13:22:38;5.50;;;2.75;;
70927;SDS011;58587;53.034;18.576;2023-07-13T13:25:04;5.20;;;2.50;;
70927;SDS011;58587;53.034;18.576;2023-07-13T13:27:29;3.67;;;2.17;;
70927;SDS011;58587;53.034;18.576;2023-07-13T13:29:55;6.70;;;3.03;;
70927;SDS011;58587;53.034;18.576;2023-07-13T13:32:23;4.72;;;2.65;;
70927;SDS011;58587;53.034;18.576;2023-07-13T13:34:49;3.50;;;2.63;;
70927;SDS011;58587;53.034;18.576;2023-07-13T13:37:20;6.43;;;2.80;;
70927;SDS011;58587;53.034;18.576;2023-07-13T13:39:48;4.27;;;2.80;;
70927;SDS011;58587;53.034;18.576;2023-07-13T13:42:14;3.92;;;2.72;;
70927;SDS011;58587;53.034;18.576;2023-07-13T13:44:40;5.00;;;2.60;;
70927;SDS011;58587;53.034;18.576;2023-07-13T13:47:07;5.75;;;3.25;;
70927;SDS011;58587;53.034;18.576;2023-07-13T13:49:54;8.83;;;3.10;;
70927;SDS011;58587;53.034;18.576;2023-07-13T13:52:19;4.60;;;2.65;;
70927;SDS011;58587;53.034;18.576;2023-07-13T13:54:44;9.67;;;3.13;;
70927;SDS011;58587;53.034;18.576;2023-07-13T13:57:10;6.80;;;2.60;;
70927;SDS011;58587;53.034;18.576;2023-07-13T13:59:37;5.30;;;2.67;;
70927;SDS011;58587;53.034;18.576;2023-07-13T14:02:08;3.83;;;2.67;;
70927;SDS011;58587;53.034;18.576;2023-07-13T14:04:47;4.13;;;2.65;;
70927;SDS011;58587;53.034;18.576;2023-07-13T14:07:15;8.60;;;4.00;;
70927;SDS011;58587;53.034;18.576;2023-07-13T14:09:40;5.57;;;2.90;;
70927;SDS011;58587;53.034;18.576;2023-07-13T14:12:08;5.20;;;2.90;;
70927;SDS011;58587;53.034;18.576;2023-07-13T14:14:36;6.78;;;2.85;;
70927;SDS011;58587;53.034;18.576;2023-07-13T14:17:01;5.83;;;2.90;;
70927;SDS011;58587;53.034;18.576;2023-07-13T14:19:27;4.40;;;2.40;;
70927;SDS011;58587;53.034;18.576;2023-07-13T14:21:52;2.50;;;2.27;;
70927;SDS011;58587;53.034;18.576;2023-07-13T14:24:18;3.47;;;2.30;;
70927;SDS011;58587;53.034;18.576;2023-07-13T14:26:43;5.22;;;2.10;;
70927;SDS011;58587;53.034;18.576;2023-07-13T14:29:14;3.85;;;2.33;;
70927;SDS011;58587;53.034;18.576;2023-07-13T14:31:42;4.00;;;2.70;;
70927;SDS011;58587;53.034;18.576;2023-07-13T14:34:11;5.63;;;2.85;;
70927;SDS011;58587;53.034;18.576;2023-07-13T14:36:42;4.03;;;2.60;;
70927;SDS011;58587;53.034;18.576;2023-07-13T14:39:14;3.70;;;2.40;;
70927;SDS011;58587;53.034;18.576;2023-07-13T14:41:41;3.17;;;2.35;;
70927;SDS011;58587;53.034;18.576;2023-07-13T14:44:14;3.07;;;2.30;;
70927;SDS011;58587;53.034;18.576;2023-07-13T14:46:40;4.28;;;2.47;;
70927;SDS011;58587;53.034;18.576;2023-07-13T14:51:45;3.15;;;2.10;;
70927;SDS011;58587;53.034;18.576;2023-07-13T14:54:10;2.80;;;2.40;;
70927;SDS011;58587;53.034;18.576;2023-07-13T14:56:36;4.10;;;2.50;;
70927;SDS011;58587;53.034;18.576;2023-07-13T14:59:01;3.43;;;2.77;;
70927;SDS011;58587;53.034;18.576;2023-07-13T15:01:27;3.73;;;2.60;;
70927;SDS011;58587;53.034;18.576;2023-07-13T15:03:53;7.10;;;2.90;;
70927;SDS011;58587;53.034;18.576;2023-07-13T15:06:19;5.50;;;2.20;;
70927;SDS011;58587;53.034;18.576;2023-07-13T15:08:45;3.63;;;2.20;;
70927;SDS011;58587;53.034;18.576;2023-07-13T15:11:11;3.95;;;2.33;;
70927;SDS011;58587;53.034;18.576;2023-07-13T15:13:37;2.63;;;2.37;;
70927;SDS011;58587;53.034;18.576;2023-07-13T15:16:04;2.90;;;2.30;;
70927;SDS011;58587;53.034;18.576;2023-07-13T15:18:35;2.72;;;2.20;;
70927;SDS011;58587;53.034;18.576;2023-07-13T15:21:08;4.25;;;2.45;;
70927;SDS011;58587;53.034;18.576;2023-07-13T15:23:34;8.63;;;2.33;;
70927;SDS011;58587;53.034;18.576;2023-07-13T15:26:00;2.20;;;1.90;;
70927;SDS011;58587;53.034;18.576;2023-07-13T15:28:25;4.23;;;2.30;;
70927;SDS011;58587;53.034;18.576;2023-07-13T15:30:50;3.17;;;2.37;;
70927;SDS011;58587;53.034;18.576;2023-07-13T15:33:20;3.90;;;2.50;;
70927;SDS011;58587;53.034;18.576;2023-07-13T15:35:49;5.10;;;2.30;;
70927;SDS011;58587;53.034;18.576;2023-07-13T15:38:24;2.97;;;2.10;;
70927;SDS011;58587;53.034;18.576;2023-07-13T15:41:04;5.97;;;2.63;;
70927;SDS011;58587;53.034;18.576;2023-07-13T15:43:40;3.65;;;2.45;;
70927;SDS011;58587;53.034;18.576;2023-07-13T15:46:05;4.00;;;2.63;;
70927;SDS011;58587;53.034;18.576;2023-07-13T15:48:31;3.00;;;2.20;;
70927;SDS011;58587;53.034;18.576;2023-07-13T15:50:59;3.22;;;2.33;;
70927;SDS011;58587;53.034;18.576;2023-07-13T15:53:30;4.30;;;2.40;;
70927;SDS011;58587;53.034;18.576;2023-07-13T15:55:59;3.47;;;2.30;;
70927;SDS011;58587;53.034;18.576;2023-07-13T15:58:26;2.95;;;2.20;;
70927;SDS011;58587;53.034;18.576;2023-07-13T16:00:53;3.88;;;2.17;;
70927;SDS011;58587;53.034;18.576;2023-07-13T16:03:19;3.60;;;2.30;;
70927;SDS011;58587;53.034;18.576;2023-07-13T16:05:46;4.75;;;2.40;;
70927;SDS011;58587;53.034;18.576;2023-07-13T16:08:33;3.33;;;2.25;;
70927;SDS011;58587;53.034;18.576;2023-07-13T16:10:59;3.63;;;1.88;;
70927;SDS011;58587;53.034;18.576;2023-07-13T16:13:25;2.75;;;2.22;;
70927;SDS011;58587;53.034;18.576;2023-07-13T16:15:51;4.00;;;2.30;;
70927;SDS011;58587;53.034;18.576;2023-07-13T16:18:17;3.45;;;2.38;;
70927;SDS011;58587;53.034;18.576;2023-07-13T16:20:44;3.60;;;2.00;;
70927;SDS011;58587;53.034;18.576;2023-07-13T16:23:14;2.63;;;2.00;;
70927;SDS011;58587;53.034;18.576;2023-07-13T16:25:40;2.83;;;2.00;;
70927;SDS011;58587;53.034;18.576;2023-07-13T16:28:08;4.55;;;2.28;;
70927;SDS011;58587;53.034;18.576;2023-07-13T16:30:34;6.28;;;2.42;;
70927;SDS011;58587;53.034;18.576;2023-07-13T16:33:03;4.90;;;1.95;;
70927;SDS011;58587;53.034;18.576;2023-07-13T16:35:31;5.00;;;2.10;;
70927;SDS011;58587;53.034;18.576;2023-07-13T16:38:15;5.37;;;2.73;;
70927;SDS011;58587;53.034;18.576;2023-07-13T16:40:42;3.00;;;1.90;;
70927;SDS011;58587;53.034;18.576;2023-07-13T16:43:08;4.10;;;2.08;;
70927;SDS011;58587;53.034;18.576;2023-07-13T16:45:38;2.88;;;2.10;;
70927;SDS011;58587;53.034;18.576;2023-07-13T16:48:13;4.23;;;2.30;;
70927;SDS011;58587;53.034;18.576;2023-07-13T16:50:40;3.08;;;1.90;;
70927;SDS011;58587;53.034;18.576;2023-07-13T16:53:23;4.05;;;2.13;;
70927;SDS011;58587;53.034;18.576;2023-07-13T16:55:51;7.25;;;2.58;;
70927;SDS011;58587;53.034;18.576;2023-07-13T16:58:20;4.10;;;2.10;;
70927;SDS011;58587;53.034;18.576;2023-07-13T17:00:50;5.03;;;1.93;;
70927;SDS011;58587;53.034;18.576;2023-07-13T17:03:17;6.10;;;1.95;;
70927;SDS011;58587;53.034;18.576;2023-07-13T17:05:43;2.38;;;1.92;;
70927;SDS011;58587;53.034;18.576;2023-07-13T17:08:20;6.13;;;1.90;;
70927;SDS011;58587;53.034;18.576;2023-07-13T17:10:50;3.33;;;2.30;;
70927;SDS011;58587;53.034;18.576;2023-07-13T17:13:19;2.47;;;1.70;;
70927;SDS011;58587;53.034;18.576;2023-07-13T17:15:48;3.20;;;1.80;;
70927;SDS011;58587;53.034;18.576;2023-07-13T17:18:18;3.72;;;1.83;;
70927;SDS011;58587;53.034;18.576;2023-07-13T17:20:44;2.80;;;1.97;;
70927;SDS011;58587;53.034;18.576;2023-07-13T17:25:48;3.80;;;1.98;;
70927;SDS011;58587;53.034;18.576;2023-07-13T17:28:17;4.03;;;1.98;;
70927;SDS011;58587;53.034;18.576;2023-07-13T17:30:45;3.63;;;1.83;;
70927;SDS011;58587;53.034;18.576;2023-07-13T17:33:26;3.70;;;1.90;;
70927;SDS011;58587;53.034;18.576;2023-07-13T17:35:53;2.65;;;2.10;;
70927;SDS011;58587;53.034;18.576;2023-07-13T17:38:20;3.90;;;2.22;;
70927;SDS011;58587;53.034;18.576;2023-07-13T17:40:45;4.23;;;2.30;;
70927;SDS011;58587;53.034;18.576;2023-07-13T17:43:10;2.67;;;2.07;;
70927;SDS011;58587;53.034;18.576;2023-07-13T17:45:36;3.10;;;2.20;;
70927;SDS011;58587;53.034;18.576;2023-07-13T17:48:01;2.93;;;2.40;;
70927;SDS011;58587;53.034;18.576;2023-07-13T17:50:32;5.57;;;2.55;;
70927;SDS011;58587;53.034;18.576;2023-07-13T17:53:08;2.77;;;2.10;;
70927;SDS011;58587;53.034;18.576;2023-07-13T17:55:38;2.38;;;2.05;;
70927;SDS011;58587;53.034;18.576;2023-07-13T17:58:03;4.20;;;2.20;;
70927;SDS011;58587;53.034;18.576;2023-07-13T18:00:32;4.38;;;2.10;;
70927;SDS011;58587;53.034;18.576;2023-07-13T18:03:05;5.07;;;2.50;;
70927;SDS011;58587;53.034;18.576;2023-07-13T18:05:39;4.40;;;2.60;;
70927;SDS011;58587;53.034;18.576;2023-07-13T18:08:05;4.45;;;2.60;;
70927;SDS011;58587;53.034;18.576;2023-07-13T18:10:42;3.58;;;2.63;;
70927;SDS011;58587;53.034;18.576;2023-07-13T18:13:08;4.53;;;2.20;;
70927;SDS011;58587;53.034;18.576;2023-07-13T18:15:33;3.13;;;2.53;;
70927;SDS011;58587;53.034;18.576;2023-07-13T18:17:59;4.57;;;2.50;;
70927;SDS011;58587;53.034;18.576;2023-07-13T18:20:25;4.10;;;2.27;;
70927;SDS011;58587;53.034;18.576;2023-07-13T18:22:51;4.23;;;2.37;;
70927;SDS011;58587;53.034;18.576;2023-07-13T18:25:21;3.05;;;2.45;;
70927;SDS011;58587;53.034;18.576;2023-07-13T18:27:48;5.63;;;2.70;;
70927;SDS011;58587;53.034;18.576;2023-07-13T18:30:14;4.60;;;3.13;;
70927;SDS011;58587;53.034;18.576;2023-07-13T18:32:46;3.35;;;2.53;;
70927;SDS011;58587;53.034;18.576;2023-07-13T18:35:18;3.83;;;2.58;;
70927;SDS011;58587;53.034;18.576;2023-07-13T18:37:50;6.00;;;2.77;;
70927;SDS011;58587;53.034;18.576;2023-07-13T18:40:17;5.63;;;3.03;;
70927;SDS011;58587;53.034;18.576;2023-07-13T18:42:44;5.22;;;3.15;;
70927;SDS011;58587;53.034;18.576;2023-07-13T18:45:11;4.32;;;2.88;;
70927;SDS011;58587;53.034;18.576;2023-07-13T18:47:41;4.65;;;2.75;;
70927;SDS011;58587;53.034;18.576;2023-07-13T18:50:19;4.67;;;3.00;;
70927;SDS011;58587;53.034;18.576;2023-07-13T18:52:49;6.43;;;2.95;;
70927;SDS011;58587;53.034;18.576;2023-07-13T18:55:15;4.43;;;2.70;;
70927;SDS011;58587;53.034;18.576;2023-07-13T18:57:45;10.70;;;6.85;;
70927;SDS011;58587;53.034;18.576;2023-07-13T19:00:12;6.40;;;4.30;;
70927;SDS011;58587;53.034;18.576;2023-07-13T19:02:38;6.10;;;3.35;;
70927;SDS011;58587;53.034;18.576;2023-07-13T19:05:14;9.90;;;3.33;;
70927;SDS011;58587;53.034;18.576;2023-07-13T19:07:42;6.85;;;3.08;;
70927;SDS011;58587;53.034;18.576;2023-07-13T19:10:14;4.30;;;2.70;;
70927;SDS011;58587;53.034;18.576;2023-07-13T19:12:45;3.20;;;2.90;;
70927;SDS011;58587;53.034;18.576;2023-07-13T19:15:22;4.35;;;2.90;;
70927;SDS011;58587;53.034;18.576;2023-07-13T19:17:51;3.33;;;2.83;;
70927;SDS011;58587;53.034;18.576;2023-07-13T19:20:18;5.45;;;3.10;;
70927;SDS011;58587;53.034;18.576;2023-07-13T19:22:58;5.50;;;2.73;;
70927;SDS011;58587;53.034;18.576;2023-07-13T19:25:27;6.10;;;3.00;;
70927;SDS011;58587;53.034;18.576;2023-07-13T19:30:42;7.32;;;2.70;;
70927;SDS011;58587;53.034;18.576;2023-07-13T19:33:09;4.83;;;2.93;;
70927;SDS011;58587;53.034;18.576;2023-07-13T19:35:40;8.10;;;3.17;;
70927;SDS011;58587;53.034;18.576;2023-07-13T19:38:09;4.88;;;3.40;;
70927;SDS011;58587;53.034;18.576;2023-07-13T19:40:41;3.43;;;2.87;;
70927;SDS011;58587;53.034;18.576;2023-07-13T19:43:13;4.97;;;3.20;;
70927;SDS011;58587;53.034;18.576;2023-07-13T19:45:39;6.93;;;3.63;;
70927;SDS011;58587;53.034;18.576;2023-07-13T19:48:04;6.13;;;4.13;;
70927;SDS011;58587;53.034;18.576;2023-07-13T19:50:32;5.83;;;3.70;;
70927;SDS011;58587;53.034;18.576;2023-07-13T19:52:58;6.25;;;3.88;;
70927;SDS011;58587;53.034;18.576;2023-07-13T19:55:25;4.47;;;3.30;;
70927;SDS011;58587;53.034;18.576;2023-07-13T19:57:52;6.65;;;3.50;;
70927;SDS011;58587;53.034;18.576;2023-07-13T20:00:22;4.10;;;3.15;;
70927;SDS011;58587;53.034;18.576;2023-07-13T20:02:49;4.00;;;3.17;;
70927;SDS011;58587;53.034;18.576;2023-07-13T20:05:16;5.10;;;3.47;;
70927;SDS011;58587;53.034;18.576;2023-07-13T20:07:59;4.80;;;3.47;;
70927;SDS011;58587;53.034;18.576;2023-07-13T20:12:51;4.23;;;3.23;;
70927;SDS011;58587;53.034;18.576;2023-07-13T20:15:18;3.88;;;3.10;;
70927;SDS011;58587;53.034;18.576;2023-07-13T20:17:52;5.32;;;3.70;;
70927;SDS011;58587;53.034;18.576;2023-07-13T20:20:20;5.13;;;3.30;;
70927;SDS011;58587;53.034;18.576;2023-07-13T20:22:58;5.32;;;3.22;;
70927;SDS011;58587;53.034;18.576;2023-07-13T20:25:26;4.50;;;3.25;;
70927;SDS011;58587;53.034;18.576;2023-07-13T20:27:53;4.03;;;3.00;;
70927;SDS011;58587;53.034;18.576;2023-07-13T20:30:20;6.75;;;3.60;;
70927;SDS011;58587;53.034;18.576;2023-07-13T20:32:46;3.67;;;3.27;;
70927;SDS011;58587;53.034;18.576;2023-07-13T20:35:29;5.20;;;3.20;;
70927;SDS011;58587;53.034;18.576;2023-07-13T20:37:57;4.18;;;3.28;;
70927;SDS011;58587;53.034;18.576;2023-07-13T20:40:23;5.37;;;3.00;;
70927;SDS011;58587;53.034;18.576;2023-07-13T20:42:50;3.88;;;2.80;;
70927;SDS011;58587;53.034;18.576;2023-07-13T20:45:16;3.90;;;3.37;;
70927;SDS011;58587;53.034;18.576;2023-07-13T20:47:42;4.43;;;3.30;;
70927;SDS011;58587;53.034;18.576;2023-07-13T20:52:45;4.10;;;3.40;;
70927;SDS011;58587;53.034;18.576;2023-07-13T20:55:13;5.30;;;3.20;;
70927;SDS011;58587;53.034;18.576;2023-07-13T20:57:41;4.93;;;3.50;;
70927;SDS011;58587;53.034;18.576;2023-07-13T21:00:08;5.82;;;3.78;;
70927;SDS011;58587;53.034;18.576;2023-07-13T21:02:56;4.30;;;3.50;;
70927;SDS011;58587;53.034;18.576;2023-07-13T21:05:25;4.40;;;3.20;;
70927;SDS011;58587;53.034;18.576;2023-07-13T21:07:53;3.92;;;3.28;;
70927;SDS011;58587;53.034;18.576;2023-07-13T21:10:25;4.77;;;3.63;;
70927;SDS011;58587;53.034;18.576;2023-07-13T21:12:53;6.07;;;3.95;;
70927;SDS011;58587;53.034;18.576;2023-07-13T21:15:23;6.57;;;3.85;;
70927;SDS011;58587;53.034;18.576;2023-07-13T21:17:52;5.18;;;3.55;;
70927;SDS011;58587;53.034;18.576;2023-07-13T21:20:22;4.70;;;3.23;;
70927;SDS011;58587;53.034;18.576;2023-07-13T21:22:49;7.65;;;3.42;;
70927;SDS011;58587;53.034;18.576;2023-07-13T21:25:19;3.95;;;3.47;;
70927;SDS011;58587;53.034;18.576;2023-07-13T21:27:50;6.90;;;3.17;;
70927;SDS011;58587;53.034;18.576;2023-07-13T21:30:18;3.65;;;3.33;;
70927;SDS011;58587;53.034;18.576;2023-07-13T21:32:46;4.93;;;3.27;;
70927;SDS011;58587;53.034;18.576;2023-07-13T21:37:53;5.88;;;3.83;;
70927;SDS011;58587;53.034;18.576;2023-07-13T21:40:20;5.30;;;3.63;;
70927;SDS011;58587;53.034;18.576;2023-07-13T21:42:46;6.40;;;3.25;;
70927;SDS011;58587;53.034;18.576;2023-07-13T21:45:25;6.27;;;3.30;;
70927;SDS011;58587;53.034;18.576;2023-07-13T21:47:52;9.00;;;3.72;;
70927;SDS011;58587;53.034;18.576;2023-07-13T21:50:20;4.93;;;2.80;;
70927;SDS011;58587;53.034;18.576;2023-07-13T21:52:48;4.88;;;3.55;;
70927;SDS011;58587;53.034;18.576;2023-07-13T21:55:23;5.77;;;3.10;;
70927;SDS011;58587;53.034;18.576;2023-07-13T21:57:50;7.17;;;3.60;;
70927;SDS011;58587;53.034;18.576;2023-07-13T22:00:18;5.18;;;3.38;;
70927;SDS011;58587;53.034;18.576;2023-07-13T22:02:46;4.85;;;3.13;;
70927;SDS011;58587;53.034;18.576;2023-07-13T22:05:13;5.43;;;3.03;;
70927;SDS011;58587;53.034;18.576;2023-07-13T22:07:40;4.72;;;2.90;;
70927;SDS011;58587;53.034;18.576;2023-07-13T22:10:12;7.13;;;3.23;;
70927;SDS011;58587;53.034;18.576;2023-07-13T22:12:43;4.85;;;2.55;;
70927;SDS011;58587;53.034;18.576;2023-07-13T22:15:08;5.33;;;2.57;;
70927;SDS011;58587;53.034;18.576;2023-07-13T22:17:34;4.53;;;2.63;;
70927;SDS011;58587;53.034;18.576;2023-07-13T22:20:00;3.87;;;2.70;;
70927;SDS011;58587;53.034;18.576;2023-07-13T22:22:26;4.70;;;2.95;;
70927;SDS011;58587;53.034;18.576;2023-07-13T22:24:52;3.55;;;2.30;;
70927;SDS011;58587;53.034;18.576;2023-07-13T22:27:17;3.73;;;2.53;;
70927;SDS011;58587;53.034;18.576;2023-07-13T22:29:43;3.40;;;2.60;;
70927;SDS011;58587;53.034;18.576;2023-07-13T22:32:09;5.05;;;2.28;;
70927;SDS011;58587;53.034;18.576;2023-07-13T22:34:36;4.80;;;2.20;;
70927;SDS011;58587;53.034;18.576;2023-07-13T22:37:01;10.05;;;2.50;;
70927;SDS011;58587;53.034;18.576;2023-07-13T22:39:28;3.80;;;2.23;;
70927;SDS011;58587;53.034;18.576;2023-07-13T22:41:57;5.18;;;2.50;;
70927;SDS011;58587;53.034;18.576;2023-07-13T22:44:22;5.57;;;2.40;;
70927;SDS011;58587;53.034;18.576;2023-07-13T22:46:49;3.57;;;2.10;;
70927;SDS011;58587;53.034;18.576;2023-07-13T22:49:22;4.80;;;2.30;;
70927;SDS011;58587;53.034;18.576;2023-07-13T22:51:57;3.90;;;2.60;;
70927;SDS011;58587;53.034;18.576;2023-07-13T22:54:23;5.10;;;2.60;;
70927;SDS011;58587;53.034;18.576;2023-07-13T22:56:49;4.90;;;2.80;;
70927;SDS011;58587;53.034;18.576;2023-07-13T22:59:14;5.17;;;2.90;;
70927;SDS011;58587;53.034;18.576;2023-07-13T23:01:40;6.47;;;2.83;;
70927;SDS011;58587;53.034;18.576;2023-07-13T23:04:20;3.87;;;2.30;;
70927;SDS011;58587;53.034;18.576;2023-07-13T23:06:51;4.10;;;2.75;;
70927;SDS011;58587;53.034;18.576;2023-07-13T23:09:18;4.00;;;2.45;;
70927;SDS011;58587;53.034;18.576;2023-07-13T23:11:45;3.70;;;2.58;;